Beaver Crossing, Nebraska
Current Conditions -  °F | °C
As of 2:55 PM on Sunday 21 Dec 2014 (Local Time) from KJYR Reporting Station
Haze Haze  
Wind Chill: 33°   Ceiling: 500
Heat Index: 41°   Visibility: 5mi
Dew Point: 39°   Wind: 16mph
Humidity: 93%   Direction: 180°S
Pressure: 29.67"   Gusts: 21mph
Location:  40.78°N, 97.28°W
Report Text: KJYR 212055Z AUTO 18014G18KT 5SM BR OVC005 05/04 A2967 RMK AO2
Loading
Personal Weather Stations






























Interactive Weather Map New forecast layout! Learn more

10-Day Weather Forecast

Advertisements
Track Severe Weather on mobile